LDRG weather

Grobnicko Polje Airport
Grobnicko, Primorje-Gorski Kotar County, Croatia

Public forecast

Using degrees Celsius for public forecast. Weather courtesy of forecast.io.

Closest aviation weather report (METAR) to Grobnicko Polje Airport

Closest report is Rijeka Airport, 10.2 nm (18.8 km) SSE. Retrieved 2019/12/05 19:30 UTC (0 seconds ago):

LDRI 051930Z VRB02KT CAVOK 06/01 Q1026

Closest aviation forecast (TAF) to Grobnicko Polje Airport

Closest forecast is Rijeka Airport, 10.2 nm (18.8 km) SSE. Retrieved 2019/12/05 18:00 UTC (1 hour ago):

TAF LDRI 051725Z 0518/0618 VRB02KT 9999 SCT040 TX11/0613Z TN05/0520Z PROB30 TEMPO 0610/0618 12008KT RA BKN010